Time;durP1;ratioP1;P1;durP2;ratioP2;P2;SDS_P1;SDS_P2;PMS_P1;PMS_P2;Temp;Humidity;BMP_temperature;BMP_pressure;BME280_temperature;BME280_humidity;BME280_pressure;Samples;Min_cycle;Max_cycle;Signal;HPM_P1;HPM_P2
2021/06/29 00:02:16;;;;;;;4.50;2.70;;;22.40;81.60;;;;;;4982946;28;20037;-78
2021/06/29 00:04:41;;;;;;;3.67;2.60;;;22.40;81.60;;;;;;4982709;28;20038;-78
2021/06/29 00:07:07;;;;;;;3.08;2.75;;;22.50;81.50;;;;;;4982996;28;20157;-78
2021/06/29 00:09:33;;;;;;;6.60;2.75;;;22.50;81.10;;;;;;4982604;28;20042;-78
2021/06/29 00:12:00;;;;;;;4.45;2.90;;;22.50;81.10;;;;;;4982128;28;20038;-78
2021/06/29 00:14:26;;;;;;;4.38;3.10;;;22.50;81.20;;;;;;4983777;28;20474;-78
2021/06/29 00:16:52;;;;;;;5.07;2.72;;;22.40;81.30;;;;;;4997640;28;20031;-78
2021/06/29 00:19:19;;;;;;;4.05;3.03;;;22.50;82.00;;;;;;4983218;28;20033;-78
2021/06/29 00:21:46;;;;;;;3.50;3.22;;;22.20;83.50;;;;;;4997500;28;20044;-78
2021/06/29 00:24:11;;;;;;;6.72;3.53;;;22.00;84.40;;;;;;4983296;28;20027;-78
2021/06/29 00:26:37;;;;;;;5.20;3.13;;;21.90;84.60;;;;;;4981782;28;20113;-78
2021/06/29 00:29:02;;;;;;;4.47;3.13;;;21.80;84.60;;;;;;4982617;28;20043;-78
2021/06/29 00:31:28;;;;;;;4.93;3.25;;;21.70;85.00;;;;;;5020079;23;20420;-76
2021/06/29 00:33:53;;;;;;;4.72;3.53;;;21.70;84.80;;;;;;5011947;28;20049;-77
2021/06/29 00:36:19;;;;;;;6.20;3.60;;;21.70;84.30;;;;;;5011520;28;20026;-76
2021/06/29 00:38:44;;;;;;;3.60;3.30;;;21.90;84.00;;;;;;5009566;28;20084;-76
2021/06/29 00:41:11;;;;;;;4.65;3.15;;;21.90;84.00;;;;;;5000480;28;20030;-76
2021/06/29 00:43:36;;;;;;;5.20;3.00;;;22.00;83.80;;;;;;4996629;28;20759;-76
2021/06/29 00:46:02;;;;;;;4.10;3.08;;;22.00;83.60;;;;;;4997443;28;20073;-76
2021/06/29 00:48:28;;;;;;;3.90;3.33;;;22.00;83.60;;;;;;4998111;28;20113;-76
2021/06/29 00:50:53;;;;;;;5.93;2.97;;;22.00;83.40;;;;;;4997002;28;20050;-76
2021/06/29 00:53:19;;;;;;;3.80;2.65;;;22.00;83.30;;;;;;4982831;28;20034;-76
2021/06/29 00:55:44;;;;;;;3.90;2.70;;;22.10;83.20;;;;;;4982128;28;20101;-76
2021/06/29 00:58:12;;;;;;;3.83;3.42;;;22.00;83.30;;;;;;4982233;28;20086;-76
2021/06/29 01:00:41;;;;;;;3.88;2.78;;;22.00;83.20;;;;;;4982254;28;20413;-76
2021/06/29 01:03:06;;;;;;;4.45;2.72;;;21.90;83.40;;;;;;4981443;28;20030;-77
2021/06/29 01:05:32;;;;;;;3.15;2.75;;;22.00;83.10;;;;;;4982806;28;20022;-76
2021/06/29 01:07:58;;;;;;;4.10;3.25;;;22.10;82.40;;;;;;4981761;28;20026;-77
2021/06/29 01:10:23;;;;;;;4.50;3.40;;;22.30;82.00;;;;;;4981115;28;20536;-76
2021/06/29 01:12:49;;;;;;;4.00;3.13;;;22.30;82.10;;;;;;4981764;28;20034;-76
2021/06/29 01:15:14;;;;;;;4.75;3.22;;;22.30;82.10;;;;;;4982260;28;20440;-76
2021/06/29 01:17:40;;;;;;;4.00;2.88;;;22.30;81.80;;;;;;4981886;28;20070;-76
2021/06/29 01:20:14;;;;;;;5.15;3.30;;;22.30;81.80;;;;;;4980956;28;20064;-76
2021/06/29 01:22:40;;;;;;;5.25;2.78;;;22.40;82.40;;;;;;4996292;28;20437;-76
2021/06/29 01:25:09;;;;;;;4.57;3.47;;;22.30;82.00;;;;;;4982131;28;20657;-77
2021/06/29 01:27:42;;;;;;;3.80;3.08;;;22.30;82.30;;;;;;4981590;28;20034;-76
2021/06/29 01:32:39;;;;;;;3.65;2.85;;;22.30;82.10;;;;;;4981542;28;20504;-76
2021/06/29 01:35:09;;;;;;;3.92;3.00;;;22.30;81.80;;;;;;4981133;28;20053;-76
2021/06/29 01:37:36;;;;;;;3.83;3.35;;;22.30;82.10;;;;;;4980848;28;20540;-76
2021/06/29 01:40:10;;;;;;;5.65;2.97;;;22.10;82.00;;;;;;4981911;28;20034;-76
2021/06/29 01:42:36;;;;;;;5.38;3.30;;;21.90;82.50;;;;;;4996315;28;20026;-76
2021/06/29 01:45:02;;;;;;;7.05;2.92;;;21.90;83.00;;;;;;4980509;28;20027;-76
2021/06/29 01:47:35;;;;;;;7.93;3.30;;;21.80;82.90;;;;;;4981825;28;20117;-76
2021/06/29 01:50:27;;;;;;;5.97;3.78;;;21.80;83.40;;;;;;4980402;28;20035;-76
2021/06/29 01:52:55;;;;;;;12.23;3.15;;;21.70;82.90;;;;;;4980511;28;20043;-76
2021/06/29 01:55:20;;;;;;;9.05;2.95;;;21.60;83.30;;;;;;4981451;28;20449;-76
2021/06/29 01:57:48;;;;;;;7.80;3.85;;;21.50;83.30;;;;;;4981081;28;20058;-76
2021/06/29 02:00:14;;;;;;;6.22;2.67;;;21.40;83.50;;;;;;4981431;28;20030;-76
2021/06/29 02:02:40;;;;;;;8.45;3.55;;;21.40;83.80;;;;;;4980164;28;20022;-76
2021/06/29 02:05:06;;;;;;;11.02;2.97;;;21.50;84.10;;;;;;4980936;28;20134;-76
2021/06/29 02:07:32;;;;;;;10.55;3.05;;;21.40;83.80;;;;;;4981000;28;20505;-76
2021/06/29 02:09:57;;;;;;;6.97;3.30;;;21.30;84.10;;;;;;4980768;28;20030;-76
2021/06/29 02:12:23;;;;;;;8.38;3.55;;;21.40;84.10;;;;;;4980960;28;20030;-76
2021/06/29 02:14:48;;;;;;;8.57;3.30;;;21.60;83.80;;;;;;4980693;28;20034;-76
2021/06/29 02:17:14;;;;;;;5.43;3.30;;;21.60;83.40;;;;;;4980713;28;20038;-76
2021/06/29 02:19:39;;;;;;;6.97;4.10;;;21.70;83.10;;;;;;4980479;28;20075;-76
2021/06/29 02:22:06;;;;;;;9.60;3.80;;;21.80;82.90;;;;;;4980973;28;20042;-76
2021/06/29 02:24:32;;;;;;;6.45;3.58;;;21.90;82.60;;;;;;4980885;28;20029;-76
2021/06/29 02:26:58;;;;;;;11.15;3.70;;;21.90;82.30;;;;;;4980111;28;20027;-76
2021/06/29 02:29:23;;;;;;;6.70;2.47;;;21.90;81.70;;;;;;4995789;28;20027;-76
2021/06/29 02:31:49;;;;;;;7.50;4.00;;;21.80;81.70;;;;;;4979568;28;20045;-76
2021/06/29 02:34:14;;;;;;;12.40;3.00;;;21.90;81.50;;;;;;4980947;28;20031;-76
2021/06/29 02:36:40;;;;;;;6.93;2.53;;;21.90;81.20;;;;;;4980728;28;20069;-76
2021/06/29 02:39:05;;;;;;;7.35;2.63;;;21.90;81.00;;;;;;4980914;28;20049;-76
2021/06/29 02:41:31;;;;;;;6.50;2.50;;;21.90;80.70;;;;;;4980585;28;20022;-76
2021/06/29 02:43:57;;;;;;;7.85;2.92;;;21.90;80.40;;;;;;4980457;28;20646;-76
2021/06/29 02:46:22;;;;;;;3.15;1.90;;;21.90;80.40;;;;;;4994950;28;20434;-76
2021/06/29 02:48:48;;;;;;;3.90;1.95;;;21.90;80.30;;;;;;4979304;28;20389;-76
2021/06/29 02:51:13;;;;;;;2.80;1.67;;;21.90;80.40;;;;;;4980627;28;20156;-76
2021/06/29 02:53:39;;;;;;;3.30;1.60;;;21.90;80.50;;;;;;4980051;28;20031;-76
2021/06/29 02:56:05;;;;;;;3.28;1.73;;;21.80;81.30;;;;;;4995361;28;20066;-76
2021/06/29 02:58:30;;;;;;;5.72;1.50;;;21.80;82.10;;;;;;4980277;28;20523;-77
2021/06/29 03:00:56;;;;;;;5.93;1.88;;;21.70;83.50;;;;;;4979983;28;20041;-76
2021/06/29 03:03:21;;;;;;;9.80;2.75;;;21.60;84.30;;;;;;4980216;28;20555;-76
2021/06/29 03:05:47;;;;;;;9.48;2.38;;;21.50;85.90;;;;;;4980773;28;20027;-75
2021/06/29 03:08:13;;;;;;;5.60;2.28;;;21.30;87.40;;;;;;4981716;28;20031;-75
2021/06/29 03:10:38;;;;;;;2.83;1.73;;;21.10;88.60;;;;;;4997299;28;20382;-75
2021/06/29 03:13:04;;;;;;;4.82;1.63;;;21.00;89.10;;;;;;4996156;28;20066;-75
2021/06/29 03:15:29;;;;;;;4.95;1.98;;;20.90;89.50;;;;;;4983051;28;20459;-75
2021/06/29 03:17:55;;;;;;;1.58;1.35;;;20.90;89.40;;;;;;4980035;28;20406;-75
2021/06/29 03:20:20;;;;;;;4.68;1.30;;;20.80;89.50;;;;;;4980801;28;20128;-75
2021/06/29 03:22:46;;;;;;;2.42;1.30;;;20.80;89.50;;;;;;4980302;28;20041;-75
2021/06/29 03:25:12;;;;;;;2.65;1.33;;;20.90;89.80;;;;;;4981349;28;20023;-75
2021/06/29 03:27:38;;;;;;;3.80;1.27;;;20.90;89.50;;;;;;4980371;28;20031;-75
2021/06/29 03:30:05;;;;;;;3.83;2.00;;;20.90;90.30;;;;;;4996430;28;20092;-75
2021/06/29 03:32:31;;;;;;;5.55;2.47;;;20.90;90.00;;;;;;4996360;28;20034;-75
2021/06/29 03:34:56;;;;;;;6.30;1.88;;;20.90;90.00;;;;;;4980253;28;20027;-75
2021/06/29 03:37:22;;;;;;;2.40;1.70;;;20.80;90.00;;;;;;4980903;28;20422;-75
2021/06/29 03:39:47;;;;;;;4.63;2.15;;;20.80;90.10;;;;;;4996187;28;20030;-75
2021/06/29 03:42:13;;;;;;;2.53;2.00;;;20.80;90.20;;;;;;4980502;28;20552;-75
2021/06/29 03:44:38;;;;;;;4.88;2.38;;;20.80;90.10;;;;;;4983152;28;20027;-75
2021/06/29 03:47:04;;;;;;;4.78;2.25;;;20.70;90.70;;;;;;4981577;28;20045;-75
2021/06/29 03:49:30;;;;;;;8.13;2.83;;;20.70;90.50;;;;;;4979517;28;20117;-75
2021/06/29 03:51:56;;;;;;;9.05;3.05;;;20.70;90.70;;;;;;4995426;28;20022;-75
2021/06/29 03:54:22;;;;;;;6.65;2.65;;;20.70;90.90;;;;;;4996067;28;20058;-75
2021/06/29 03:56:48;;;;;;;6.75;3.67;;;20.70;90.60;;;;;;4980976;28;20445;-76
2021/06/29 03:59:13;;;;;;;5.82;2.97;;;20.70;91.10;;;;;;4978737;28;20031;-76
2021/06/29 04:01:39;;;;;;;5.88;3.05;;;20.60;91.40;;;;;;4980580;28;20109;-76
2021/06/29 04:04:05;;;;;;;4.53;2.90;;;20.50;91.30;;;;;;4978023;28;20325;-76
2021/06/29 04:06:34;;;;;;;4.07;2.55;;;20.50;91.20;;;;;;4980444;28;20031;-76
2021/06/29 04:09:00;;;;;;;3.35;1.80;;;20.60;91.20;;;;;;4982588;28;20023;-76
2021/06/29 04:11:27;;;;;;;7.25;2.33;;;20.70;91.20;;;;;;4981048;28;20030;-76
2021/06/29 04:13:53;;;;;;;3.20;1.27;;;20.70;91.00;;;;;;4981738;28;20031;-77
2021/06/29 04:16:19;;;;;;;1.80;1.50;;;20.70;91.10;;;;;;4982836;28;20026;-76
2021/06/29 04:18:45;;;;;;;4.22;2.08;;;20.60;91.20;;;;;;4983697;28;20368;-76
2021/06/29 04:21:11;;;;;;;4.65;1.77;;;20.60;91.40;;;;;;4982394;28;20035;-75
2021/06/29 04:23:38;;;;;;;4.90;1.73;;;20.50;91.60;;;;;;4980857;28;20065;-76
2021/06/29 04:26:04;;;;;;;2.58;1.95;;;20.50;91.20;;;;;;4980883;28;20023;-75
2021/06/29 04:28:30;;;;;;;3.40;1.92;;;20.70;91.00;;;;;;4996705;28;20088;-76
2021/06/29 04:30:55;;;;;;;3.97;1.85;;;20.70;90.90;;;;;;4997550;28;20429;-76
2021/06/29 04:33:21;;;;;;;2.25;1.63;;;20.80;90.80;;;;;;4983118;28;20531;-75
2021/06/29 04:35:47;;;;;;;7.63;1.95;;;20.70;91.00;;;;;;4984269;28;20045;-76
2021/06/29 04:38:13;;;;;;;3.90;1.63;;;20.70;91.00;;;;;;4986101;28;20031;-77
2021/06/29 04:40:39;;;;;;;5.40;1.88;;;20.70;91.00;;;;;;4984040;28;20531;-77
2021/06/29 04:43:04;;;;;;;5.22;2.55;;;20.80;91.00;;;;;;4980840;28;20026;-77
2021/06/29 04:45:30;;;;;;;3.35;2.00;;;20.70;91.40;;;;;;4989163;28;20029;-77
2021/06/29 04:47:56;;;;;;;4.50;2.88;;;20.70;91.30;;;;;;4999217;28;20023;-76
2021/06/29 04:50:23;;;;;;;5.28;2.13;;;20.70;91.30;;;;;;4987879;28;20022;-76
2021/06/29 04:52:48;;;;;;;7.45;2.40;;;20.60;91.60;;;;;;4986242;28;20030;-77
2021/06/29 04:55:15;;;;;;;3.80;2.42;;;20.50;91.50;;;;;;4999097;28;20130;-77
2021/06/29 04:57:41;;;;;;;5.05;1.80;;;20.40;91.30;;;;;;4984246;28;20034;-76
2021/06/29 05:00:10;;;;;;;2.42;1.77;;;20.30;91.00;;;;;;4987732;28;20038;-78
2021/06/29 05:02:37;;;;;;;4.35;1.65;;;20.20;91.50;;;;;;4990200;28;20034;-76
2021/06/29 05:05:04;;;;;;;2.80;2.28;;;20.20;91.90;;;;;;4994399;28;20034;-77
2021/06/29 05:07:29;;;;;;;3.60;2.15;;;20.30;92.10;;;;;;4980229;28;20113;-78
2021/06/29 05:09:55;;;;;;;3.95;2.50;;;20.20;92.30;;;;;;4979137;28;20472;-78
2021/06/29 05:12:20;;;;;;;6.53;2.20;;;20.20;92.50;;;;;;4994816;28;20494;-78
2021/06/29 05:14:46;;;;;;;4.53;2.00;;;20.00;92.60;;;;;;4982168;28;20038;-78
2021/06/29 05:17:11;;;;;;;3.50;2.05;;;20.00;93.00;;;;;;4981210;28;20492;-78
2021/06/29 05:19:38;;;;;;;2.78;1.77;;;19.90;92.90;;;;;;4982267;28;20145;-77
2021/06/29 05:22:05;;;;;;;2.78;2.55;;;20.00;93.20;;;;;;4996631;28;20474;-77
2021/06/29 05:24:30;;;;;;;3.55;2.72;;;20.10;93.00;;;;;;4982368;28;20034;-77
2021/06/29 05:26:56;;;;;;;5.35;2.65;;;20.20;93.10;;;;;;4981173;28;20027;-77
2021/06/29 05:29:21;;;;;;;8.57;4.28;;;20.10;92.90;;;;;;4982099;28;20033;-77
2021/06/29 05:31:47;;;;;;;8.68;4.60;;;20.00;92.90;;;;;;4996558;28;20034;-77
2021/06/29 05:34:12;;;;;;;12.65;4.45;;;20.00;92.80;;;;;;4981626;28;20390;-77
2021/06/29 05:36:38;;;;;;;7.13;3.88;;;20.00;92.90;;;;;;4980960;28;20106;-77
2021/06/29 05:39:04;;;;;;;7.95;3.30;;;19.80;92.80;;;;;;4981505;28;20081;-77
2021/06/29 05:41:30;;;;;;;6.43;3.45;;;19.90;93.20;;;;;;4996956;28;20022;-77
2021/06/29 05:43:56;;;;;;;6.38;4.45;;;20.00;93.70;;;;;;4979604;28;20027;-77
2021/06/29 05:46:22;;;;;;;4.95;4.28;;;20.10;93.50;;;;;;4981667;28;20505;-77
2021/06/29 05:48:49;;;;;;;7.95;5.22;;;20.20;93.30;;;;;;4981088;28;20023;-77
2021/06/29 05:51:15;;;;;;;5.97;4.78;;;20.20;93.10;;;;;;4981114;28;20470;-77
2021/06/29 05:53:40;;;;;;;6.97;3.83;;;20.30;93.40;;;;;;4980648;28;20044;-77
2021/06/29 05:56:07;;;;;;;8.02;3.97;;;20.30;92.90;;;;;;4981653;28;20066;-76
2021/06/29 05:58:33;;;;;;;5.63;3.40;;;20.50;92.90;;;;;;4979138;28;20027;-76
2021/06/29 06:00:58;;;;;;;6.22;3.20;;;20.40;93.10;;;;;;4981102;28;20052;-76
2021/06/29 06:03:24;;;;;;;7.70;3.42;;;20.30;93.40;;;;;;4995759;28;20070;-76
2021/06/29 06:05:50;;;;;;;5.55;2.88;;;20.20;93.70;;;;;;4994963;28;20022;-76
2021/06/29 06:08:15;;;;;;;5.10;3.50;;;20.10;93.90;;;;;;4992618;28;20034;-76
2021/06/29 06:10:41;;;;;;;4.00;3.25;;;20.10;93.90;;;;;;4994510;28;20440;-76
2021/06/29 06:13:07;;;;;;;8.75;3.30;;;20.10;93.80;;;;;;4979499;28;20076;-76
2021/06/29 06:15:32;;;;;;;12.55;7.63;;;20.30;93.70;;;;;;4994641;28;20052;-77
2021/06/29 06:17:58;;;;;;;7.53;4.95;;;20.30;93.60;;;;;;4980675;28;20409;-77
2021/06/29 06:20:23;;;;;;;9.43;7.18;;;20.30;93.50;;;;;;4984799;28;20038;-75
2021/06/29 06:22:49;;;;;;;5.10;3.22;;;20.50;93.20;;;;;;4975261;28;20113;-75
2021/06/29 06:25:14;;;;;;;7.15;5.20;;;20.60;93.30;;;;;;4979628;28;20034;-77
2021/06/29 06:27:40;;;;;;;8.90;6.25;;;20.50;92.80;;;;;;4995824;28;20029;-76
2021/06/29 06:30:06;;;;;;;11.93;9.00;;;20.60;92.60;;;;;;4980071;28;20027;-76
2021/06/29 06:32:32;;;;;;;8.55;7.43;;;20.70;92.60;;;;;;5026439;23;20328;-75
2021/06/29 06:34:58;;;;;;;6.90;6.20;;;20.70;92.50;;;;;;5008736;28;20076;-75
2021/06/29 06:37:23;;;;;;;26.50;18.65;;;20.70;92.60;;;;;;5006147;28;20061;-76
2021/06/29 06:39:49;;;;;;;14.77;8.80;;;20.70;92.30;;;;;;5007916;28;20032;-76
2021/06/29 06:42:15;;;;;;;15.48;11.00;;;20.80;92.60;;;;;;4989518;28;20117;-74
2021/06/29 06:44:41;;;;;;;11.75;9.07;;;20.80;92.60;;;;;;4996349;28;20049;-76
2021/06/29 06:47:07;;;;;;;10.88;6.60;;;20.80;92.60;;;;;;4993175;28;20552;-77
2021/06/29 06:49:33;;;;;;;7.80;5.70;;;20.80;92.80;;;;;;4979091;28;20025;-76
2021/06/29 06:51:58;;;;;;;5.70;3.40;;;20.80;92.70;;;;;;4980319;28;20473;-75
2021/06/29 06:54:24;;;;;;;9.25;6.45;;;20.60;93.00;;;;;;4979919;28;20054;-75
2021/06/29 06:56:49;;;;;;;6.90;5.57;;;20.50;93.90;;;;;;4979560;28;20073;-75
2021/06/29 06:59:15;;;;;;;6.15;4.22;;;20.20;94.90;;;;;;4979933;28;20031;-76
2021/06/29 07:01:41;;;;;;;5.18;4.50;;;20.00;94.70;;;;;;4993078;28;20050;-75
2021/06/29 07:04:07;;;;;;;5.30;4.07;;;19.90;94.90;;;;;;4980916;28;20385;-75
2021/06/29 07:06:33;;;;;;;4.90;4.28;;;19.90;95.10;;;;;;4979727;28;20023;-75
2021/06/29 07:08:58;;;;;;;6.53;4.22;;;20.00;94.80;;;;;;4979498;28;20034;-75
2021/06/29 07:11:24;;;;;;;4.72;3.60;;;20.10;94.70;;;;;;4993995;28;20041;-75
2021/06/29 07:13:49;;;;;;;5.18;3.30;;;20.00;94.90;;;;;;4979688;28;20034;-76
2021/06/29 07:16:18;;;;;;;7.90;4.47;;;20.00;94.70;;;;;;4995259;28;20433;-76
2021/06/29 07:18:43;;;;;;;4.18;3.75;;;20.00;95.10;;;;;;4979743;28;20034;-76
2021/06/29 07:21:10;;;;;;;5.82;3.17;;;20.00;95.00;;;;;;4994148;28;20057;-75
2021/06/29 07:23:35;;;;;;;6.50;4.72;;;20.20;94.90;;;;;;4979763;28;20033;-76
2021/06/29 07:26:02;;;;;;;4.32;3.60;;;20.40;94.60;;;;;;4979141;28;20031;-76
2021/06/29 07:28:27;;;;;;;5.25;4.13;;;20.70;94.30;;;;;;4979403;28;20147;-76
2021/06/29 07:30:53;;;;;;;9.98;3.70;;;20.80;94.00;;;;;;4977952;28;20521;-73
2021/06/29 07:33:18;;;;;;;7.63;3.95;;;21.00;93.80;;;;;;4978346;28;20030;-75
2021/06/29 07:35:44;;;;;;;5.30;3.55;;;21.10;93.70;;;;;;4994719;28;20030;-74
2021/06/29 07:38:09;;;;;;;5.35;3.97;;;21.20;93.60;;;;;;4993636;28;20148;-74
2021/06/29 07:40:35;;;;;;;5.90;3.60;;;21.20;93.80;;;;;;4979538;28;20390;-74
2021/06/29 07:43:01;;;;;;;12.02;3.63;;;21.20;93.60;;;;;;4979701;28;20034;-74
2021/06/29 07:45:29;;;;;;;5.55;3.20;;;21.20;93.60;;;;;;4980199;28;20092;-73
2021/06/29 07:48:00;;;;;;;5.72;3.58;;;21.40;93.40;;;;;;4978565;28;20026;-77
2021/06/29 07:50:26;;;;;;;3.97;3.00;;;21.50;93.10;;;;;;4982489;28;20027;-76
2021/06/29 07:52:52;;;;;;;9.18;3.25;;;21.50;92.90;;;;;;4997148;28;20080;-76
2021/06/29 07:55:17;;;;;;;5.43;3.47;;;21.50;92.80;;;;;;4996555;28;20034;-74
2021/06/29 07:57:42;;;;;;;8.13;3.10;;;21.50;92.90;;;;;;4982270;28;20039;-74
2021/06/29 08:00:10;;;;;;;5.03;2.67;;;21.50;92.90;;;;;;4981709;28;20046;-74
2021/06/29 08:02:36;;;;;;;4.57;2.80;;;21.60;92.80;;;;;;4983560;28;20084;-73
2021/06/29 08:05:01;;;;;;;4.78;2.75;;;21.60;92.80;;;;;;4982901;28;20034;-74
2021/06/29 08:07:29;;;;;;;7.25;3.17;;;21.70;92.70;;;;;;4981809;28;20041;-74
2021/06/29 08:09:56;;;;;;;4.60;3.75;;;21.70;92.60;;;;;;4980878;28;20027;-74
2021/06/29 08:12:21;;;;;;;5.47;3.13;;;21.80;92.50;;;;;;4981500;28;20030;-76
2021/06/29 08:14:47;;;;;;;7.28;3.13;;;21.80;92.50;;;;;;4982212;28;20043;-75
2021/06/29 08:17:12;;;;;;;5.68;2.90;;;21.80;92.40;;;;;;4981720;28;20034;-75
2021/06/29 08:19:38;;;;;;;5.65;4.30;;;21.90;92.30;;;;;;4996590;28;20045;-73
2021/06/29 08:22:04;;;;;;;4.55;2.33;;;21.90;92.30;;;;;;4997983;28;20069;-75
2021/06/29 08:24:30;;;;;;;4.72;2.72;;;21.90;92.10;;;;;;4982931;28;20042;-75
2021/06/29 08:26:56;;;;;;;5.30;3.45;;;21.90;92.10;;;;;;4998432;28;20030;-75
2021/06/29 08:29:22;;;;;;;3.33;2.78;;;22.00;92.10;;;;;;4982161;28;20037;-76
2021/06/29 08:31:48;;;;;;;5.05;3.42;;;22.00;91.90;;;;;;4981760;28;20038;-75
2021/06/29 08:34:13;;;;;;;8.63;4.22;;;22.00;91.70;;;;;;4983478;28;20058;-74
2021/06/29 08:36:41;;;;;;;6.78;2.88;;;22.10;91.80;;;;;;4983145;28;20035;-74
2021/06/29 08:39:12;;;;;;;6.05;3.70;;;22.00;92.00;;;;;;4982774;28;20132;-74
2021/06/29 08:41:45;;;;;;;6.10;3.47;;;22.00;91.90;;;;;;4997200;28;20402;-74
2021/06/29 08:44:11;;;;;;;12.68;4.32;;;22.00;92.00;;;;;;4982911;28;20067;-75
2021/06/29 08:46:36;;;;;;;5.38;4.18;;;21.90;92.10;;;;;;4981490;28;20084;-75
2021/06/29 08:49:04;;;;;;;6.68;4.28;;;22.00;92.10;;;;;;4981913;28;20030;-76
2021/06/29 08:51:30;;;;;;;4.95;3.78;;;22.00;92.20;;;;;;4982937;28;20377;-75
2021/06/29 08:53:55;;;;;;;4.43;3.53;;;22.00;92.30;;;;;;4981617;28;20034;-75
2021/06/29 08:56:21;;;;;;;7.10;3.75;;;22.00;92.20;;;;;;4982978;28;20039;-74
2021/06/29 08:58:47;;;;;;;11.13;4.38;;;22.00;92.20;;;;;;4982101;28;20035;-74
2021/06/29 09:01:14;;;;;;;6.13;4.18;;;21.90;92.20;;;;;;4981809;28;20030;-74
2021/06/29 09:03:40;;;;;;;5.38;3.90;;;22.00;92.20;;;;;;4981420;28;20120;-74
2021/06/29 09:06:07;;;;;;;6.43;4.80;;;21.90;92.40;;;;;;4981954;28;20058;-74
2021/06/29 09:08:40;;;;;;;10.77;4.60;;;22.00;92.50;;;;;;4982479;28;20027;-72
2021/06/29 09:11:16;;;;;;;7.60;4.55;;;21.90;92.70;;;;;;4981799;28;20552;-74
2021/06/29 09:13:43;;;;;;;9.98;4.65;;;21.90;92.80;;;;;;4979823;28;20070;-74
2021/06/29 09:16:09;;;;;;;8.90;5.57;;;21.90;92.50;;;;;;4981732;28;20098;-75
2021/06/29 09:18:40;;;;;;;8.50;4.47;;;21.90;92.70;;;;;;4987861;28;20034;-75
2021/06/29 09:21:09;;;;;;;10.38;5.40;;;22.00;92.60;;;;;;4996680;28;20859;-75
2021/06/29 09:23:34;;;;;;;12.38;4.43;;;22.00;92.80;;;;;;4982068;28;20102;-74
2021/06/29 09:26:06;;;;;;;5.72;4.25;;;22.00;92.70;;;;;;4980604;28;20153;-75
2021/06/29 09:28:40;;;;;;;6.32;3.78;;;22.10;92.80;;;;;;4979995;28;20025;-74
2021/06/29 09:31:11;;;;;;;5.00;3.95;;;22.10;92.70;;;;;;4981576;28;20061;-74
2021/06/29 09:33:38;;;;;;;7.10;3.60;;;22.10;92.80;;;;;;4995199;28;20027;-75
2021/06/29 09:36:18;;;;;;;7.65;2.78;;;22.10;92.90;;;;;;4978897;28;20033;-74
2021/06/29 09:38:46;;;;;;;6.72;2.80;;;22.20;92.70;;;;;;4981081;28;20030;-74
2021/06/29 09:41:24;;;;;;;3.60;2.97;;;22.20;92.60;;;;;;4979659;28;20023;-76
2021/06/29 09:43:52;;;;;;;5.43;3.20;;;22.20;92.70;;;;;;4982056;28;20065;-78
2021/06/29 09:46:20;;;;;;;3.00;2.38;;;22.30;92.40;;;;;;4980738;28;20109;-73
2021/06/29 09:48:53;;;;;;;2.88;2.20;;;22.30;92.20;;;;;;4980743;28;20102;-74
2021/06/29 09:51:28;;;;;;;7.55;3.20;;;22.40;92.30;;;;;;4995405;28;20521;-74
2021/06/29 09:53:59;;;;;;;3.60;2.45;;;22.50;92.20;;;;;;4980075;28;20389;-74
2021/06/29 09:56:28;;;;;;;5.32;2.08;;;22.50;92.00;;;;;;4996055;28;20027;-74
2021/06/29 09:58:56;;;;;;;4.90;2.10;;;22.60;91.90;;;;;;4980268;28;20063;-74
2021/06/29 10:01:26;;;;;;;4.70;2.35;;;22.70;91.90;;;;;;4979381;28;20034;-75
2021/06/29 10:03:53;;;;;;;5.70;2.22;;;22.70;91.60;;;;;;4980405;28;20988;-75
2021/06/29 10:06:24;;;;;;;8.95;1.88;;;22.70;91.30;;;;;;4981353;28;20105;-74
2021/06/29 10:09:00;;;;;;;6.30;2.78;;;22.70;91.40;;;;;;4995039;28;20037;-75
2021/06/29 10:11:33;;;;;;;;;;;22.70;91.20;;;;;;4978821;28;20038;-75
2021/06/29 10:14:00;;;;;;;4.05;2.05;;;22.90;91.10;;;;;;4992812;28;20401;-74
2021/06/29 10:16:29;;;;;;;6.85;2.70;;;22.90;90.90;;;;;;4980700;28;20058;-75
2021/06/29 10:21:26;;;;;;;6.65;2.45;;;23.00;90.80;;;;;;4980632;28;20486;-73
2021/06/29 10:23:57;;;;;;;7.38;2.30;;;23.10;90.70;;;;;;4980263;28;20062;-74
2021/06/29 10:26:25;;;;;;;4.38;2.10;;;23.10;90.50;;;;;;4995681;28;20116;-74
2021/06/29 10:28:52;;;;;;;6.55;2.63;;;23.10;90.40;;;;;;4995721;28;20037;-74
2021/06/29 10:31:32;;;;;;;6.50;2.67;;;23.20;90.40;;;;;;4981017;28;20448;-74
2021/06/29 10:34:02;;;;;;;4.95;2.60;;;23.30;90.10;;;;;;4980661;28;20122;-74
2021/06/29 10:36:30;;;;;;;6.28;3.42;;;23.40;90.00;;;;;;4995555;28;20035;-74
2021/06/29 10:38:58;;;;;;;6.45;3.60;;;23.50;89.80;;;;;;4980713;28;20444;-74
2021/06/29 10:41:26;;;;;;;3.75;2.90;;;23.60;90.00;;;;;;4980327;28;20458;-74
2021/06/29 10:43:52;;;;;;;7.78;3.08;;;23.70;90.00;;;;;;4980218;28;20030;-74
2021/06/29 10:46:30;;;;;;;7.95;4.15;;;23.80;89.60;;;;;;4980588;28;20054;-74
2021/06/29 10:48:56;;;;;;;10.80;3.53;;;23.90;89.50;;;;;;4980144;28;20368;-75
2021/06/29 10:51:40;;;;;;;7.70;3.92;;;24.00;88.20;;;;;;4974804;28;20042;-75
2021/06/29 10:54:34;;;;;;;7.10;3.85;;;24.20;87.80;;;;;;4980631;28;20106;-74
2021/06/29 10:57:06;;;;;;;13.25;4.30;;;24.40;87.50;;;;;;4979124;28;20455;-74
2021/06/29 10:59:33;;;;;;;9.60;3.40;;;24.40;86.30;;;;;;4980052;28;20049;-75
2021/06/29 11:01:59;;;;;;;7.28;4.32;;;24.40;86.40;;;;;;4978683;28;20665;-75
2021/06/29 11:04:46;;;;;;;9.13;3.70;;;24.50;86.80;;;;;;4979185;28;20104;-76
2021/06/29 11:07:26;;;;;;;7.03;3.72;;;24.70;86.00;;;;;;4978293;28;20035;-76
2021/06/29 11:09:56;;;;;;;5.65;2.70;;;24.70;84.00;;;;;;4978944;28;20580;-75
2021/06/29 11:12:25;;;;;;;9.57;3.05;;;24.80;85.30;;;;;;4995149;28;20074;-75
2021/06/29 11:14:54;;;;;;;4.28;3.85;;;24.90;84.80;;;;;;4978602;28;20478;-76
2021/06/29 11:17:22;;;;;;;4.78;3.53;;;24.90;84.20;;;;;;4994538;28;20114;-76
2021/06/29 11:20:03;;;;;;;6.85;3.22;;;25.00;83.80;;;;;;4979898;28;20508;-76
2021/06/29 11:22:51;;;;;;;4.18;3.35;;;25.10;83.70;;;;;;4994077;28;20070;-76
2021/06/29 11:25:35;;;;;;;5.68;2.67;;;25.10;84.10;;;;;;4983829;28;20026;-76
2021/06/29 11:28:00;;;;;;;6.25;2.80;;;25.20;84.10;;;;;;4982210;28;20022;-76
2021/06/29 11:30:55;;;;;;;3.95;2.25;;;25.20;84.00;;;;;;4983389;28;20394;-75
2021/06/29 11:33:40;;;;;;;5.22;2.75;;;25.40;83.70;;;;;;4998602;28;20405;-74
2021/06/29 11:36:28;;;;;;;4.35;2.20;;;25.50;83.60;;;;;;4983228;28;20066;-75
2021/06/29 11:39:22;;;;;;;3.90;1.92;;;25.50;83.10;;;;;;4983790;28;20061;-75
2021/06/29 11:41:51;;;;;;;2.67;1.60;;;25.70;82.40;;;;;;4983258;28;20342;-75
2021/06/29 11:44:16;;;;;;;4.13;1.98;;;25.90;81.80;;;;;;4997911;28;20031;-75
2021/06/29 11:46:59;;;;;;;2.92;1.55;;;26.00;82.20;;;;;;4983259;28;20041;-75
2021/06/29 11:49:33;;;;;;;6.82;2.65;;;26.10;82.00;;;;;;4983636;28;20033;-75
2021/06/29 11:52:11;;;;;;;2.60;1.90;;;26.00;80.30;;;;;;4982800;28;20023;-76
2021/06/29 11:54:44;;;;;;;3.58;1.50;;;26.10;79.90;;;;;;4983698;28;20584;-75
2021/06/29 11:57:16;;;;;;;7.93;2.05;;;26.20;79.70;;;;;;4998230;28;20063;-74
2021/06/29 11:59:42;;;;;;;2.83;1.95;;;26.10;79.20;;;;;;4981464;28;20037;-74
2021/06/29 12:02:11;;;;;;;12.32;10.93;;;26.00;79.30;;;;;;4982507;28;20034;-75
2021/06/29 12:04:51;;;;;;;1.65;1.52;;;25.90;78.10;;;;;;4983145;28;20022;-76
2021/06/29 12:07:37;;;;;;;4.43;1.25;;;25.90;78.80;;;;;;4983758;28;20026;-76
2021/06/29 12:10:10;;;;;;;2.58;1.40;;;25.70;78.70;;;;;;4982602;28;20035;-76
2021/06/29 12:12:37;;;;;;;5.93;1.83;;;25.70;78.70;;;;;;4983760;28;20022;-76
2021/06/29 12:15:11;;;;;;;5.97;3.67;;;25.80;79.20;;;;;;4982644;28;20074;-75
2021/06/29 12:17:43;;;;;;;4.55;2.17;;;25.80;78.00;;;;;;4998785;28;20052;-76
2021/06/29 12:20:11;;;;;;;1.88;1.52;;;25.80;78.80;;;;;;4997134;28;20035;-74
2021/06/29 12:22:39;;;;;;;4.00;2.03;;;25.90;78.60;;;;;;4983236;28;20060;-74
2021/06/29 12:25:08;;;;;;;5.38;2.80;;;25.90;78.60;;;;;;4997616;28;20474;-74
2021/06/29 12:27:43;;;;;;;3.33;1.85;;;25.90;78.40;;;;;;4998044;28;20027;-74
2021/06/29 12:30:22;;;;;;;2.15;1.75;;;26.00;78.30;;;;;;4982708;28;20076;-74
2021/06/29 12:32:47;;;;;;;4.10;1.60;;;26.20;77.90;;;;;;4986785;28;20445;-80
2021/06/29 12:35:13;;;;;;;4.72;2.05;;;26.20;77.50;;;;;;4989741;28;20052;-80
2021/06/29 12:37:57;;;;;;;1.67;1.42;;;26.20;76.80;;;;;;4982794;28;20088;-85
2021/06/29 12:40:25;;;;;;;3.67;1.75;;;26.20;77.50;;;;;;4998336;28;20429;-84
2021/06/29 12:42:51;;;;;;;3.28;1.92;;;26.20;77.00;;;;;;4982410;28;20019;-84
2021/06/29 12:45:17;;;;;;;3.45;2.30;;;26.20;77.10;;;;;;4982862;28;20034;-84
2021/06/29 12:47:43;;;;;;;3.05;1.63;;;26.00;76.70;;;;;;4982217;28;20030;-82
2021/06/29 12:50:09;;;;;;;3.70;1.80;;;25.80;76.90;;;;;;4980249;28;20477;-84
2021/06/29 12:52:35;;;;;;;2.38;1.80;;;25.70;77.00;;;;;;4982304;28;20030;-84
2021/06/29 12:55:13;;;;;;;2.63;1.45;;;25.70;77.80;;;;;;4982000;28;20030;-80